Time;durP1;ratioP1;P1;durP2;ratioP2;P2;SDS_P1;SDS_P2;PMS_P1;PMS_P2;Temp;Humidity;BMP_temperature;BMP_pressure;BME280_temperature;BME280_humidity;BME280_pressure;Samples;Min_cycle;Max_cycle;Signal;HPM_P1;HPM_P2
2023/09/10 00:00:18;;;;;;;11.75;10.55;;;27.30;80.50;;;;;;5036800;28;20048;-71
2023/09/10 00:02:44;;;;;;;11.80;10.45;;;27.10;80.20;;;;;;5053703;28;20574;-71
2023/09/10 00:05:10;;;;;;;12.40;11.13;;;27.40;80.80;;;;;;5072669;28;20040;-63
2023/09/10 00:07:36;;;;;;;11.60;10.40;;;27.20;80.10;;;;;;5071310;28;20093;-69
2023/09/10 00:10:02;;;;;;;11.38;9.70;;;27.00;80.00;;;;;;5053148;28;20041;-70
2023/09/10 00:12:28;;;;;;;11.38;10.18;;;26.90;79.90;;;;;;5026474;28;20075;-70
2023/09/10 00:14:55;;;;;;;12.05;10.23;;;26.90;79.80;;;;;;5052798;28;20120;-68
2023/09/10 00:17:21;;;;;;;12.05;9.65;;;27.20;80.30;;;;;;5036018;28;20110;-70
2023/09/10 00:19:47;;;;;;;11.05;9.95;;;26.90;79.90;;;;;;5036770;28;20415;-71
2023/09/10 00:22:13;;;;;;;12.95;9.63;;;27.20;80.00;;;;;;5036539;28;20521;-70
2023/09/10 00:24:39;;;;;;;12.65;10.52;;;27.00;79.40;;;;;;5054437;28;20041;-70
2023/09/10 00:27:05;;;;;;;11.25;9.93;;;27.00;79.70;;;;;;5071418;28;20051;-70
2023/09/10 00:29:32;;;;;;;10.95;9.30;;;26.90;79.50;;;;;;5037030;28;20040;-70
2023/09/10 00:31:58;;;;;;;12.38;9.32;;;27.00;79.90;;;;;;5031479;28;20041;-70
2023/09/10 00:34:25;;;;;;;11.38;10.18;;;26.90;79.70;;;;;;5037408;28;20508;-70
2023/09/10 00:36:55;;;;;;;10.52;9.52;;;26.80;79.90;;;;;;5054929;28;20040;-71
2023/09/10 00:39:23;;;;;;;11.93;9.68;;;27.00;79.80;;;;;;5054311;28;20056;-71
2023/09/10 00:41:53;;;;;;;11.35;10.15;;;26.90;79.60;;;;;;5034431;28;20055;-71
2023/09/10 00:44:23;;;;;;;13.77;10.18;;;27.00;79.70;;;;;;5002358;28;20048;-71
2023/09/10 00:46:51;;;;;;;13.68;10.38;;;27.30;79.90;;;;;;5051964;28;20045;-62
2023/09/10 00:49:17;;;;;;;10.63;8.85;;;27.00;79.70;;;;;;5019481;28;20524;-62
2023/09/10 00:51:43;;;;;;;11.98;8.85;;;27.10;79.70;;;;;;5070350;28;20040;-61
2023/09/10 00:54:09;;;;;;;10.32;8.35;;;27.10;79.80;;;;;;5053669;28;20048;-71
2023/09/10 00:56:35;;;;;;;10.20;9.07;;;27.00;79.70;;;;;;5037931;28;20037;-71
2023/09/10 00:59:01;;;;;;;11.75;10.10;;;27.20;80.10;;;;;;5056394;28;20052;-69
2023/09/10 01:01:28;;;;;;;12.88;10.02;;;27.20;80.30;;;;;;5059239;28;20510;-70
2023/09/10 01:03:53;;;;;;;12.05;10.85;;;27.30;80.30;;;;;;5035115;28;20080;-71
2023/09/10 01:06:21;;;;;;;11.20;9.98;;;27.10;80.00;;;;;;5035041;28;20083;-71
2023/09/10 01:08:47;;;;;;;11.40;10.25;;;26.90;79.90;;;;;;5034315;28;20088;-69
2023/09/10 01:11:21;;;;;;;11.10;10.00;;;26.90;80.00;;;;;;5018308;28;20053;-72
2023/09/10 01:14:06;;;;;;;11.13;9.90;;;27.20;80.90;;;;;;5052801;28;20048;-71
2023/09/10 01:16:58;;;;;;;10.70;9.27;;;27.00;80.20;;;;;;5054022;28;20048;-71
2023/09/10 01:19:37;;;;;;;13.27;10.02;;;26.90;80.00;;;;;;5034716;28;20056;-70
2023/09/10 01:22:13;;;;;;;10.20;8.82;;;27.10;78.80;;;;;;5026561;28;20056;-62
2023/09/10 01:24:47;;;;;;;11.05;9.95;;;27.10;80.30;;;;;;5036812;28;20040;-71
2023/09/10 01:27:14;;;;;;;12.65;10.23;;;26.90;79.90;;;;;;5037155;28;20060;-70
2023/09/10 01:29:41;;;;;;;13.27;10.88;;;27.10;79.50;;;;;;5069599;28;20070;-63
2023/09/10 01:32:10;;;;;;;12.48;10.60;;;27.00;80.00;;;;;;5042105;28;20036;-62
2023/09/10 01:34:38;;;;;;;12.45;9.68;;;26.90;80.00;;;;;;5034236;28;20471;-63
2023/09/10 01:37:28;;;;;;;12.32;9.98;;;27.00;80.00;;;;;;5034346;28;20080;-64
2023/09/10 01:39:55;;;;;;;11.88;9.77;;;26.80;80.20;;;;;;5048632;28;20049;-63
2023/09/10 01:42:43;;;;;;;10.52;9.43;;;26.90;80.00;;;;;;5043767;28;20041;-63
2023/09/10 01:45:09;;;;;;;10.90;9.13;;;26.90;78.80;;;;;;5049816;28;20552;-61
2023/09/10 01:47:35;;;;;;;10.85;9.07;;;27.10;79.70;;;;;;5071732;28;20048;-61
2023/09/10 01:50:01;;;;;;;11.15;9.80;;;26.70;79.30;;;;;;5051492;28;20498;-61
2023/09/10 01:52:27;;;;;;;12.10;9.10;;;26.70;79.50;;;;;;5062189;28;20051;-61
2023/09/10 01:54:53;;;;;;;12.63;9.63;;;26.80;79.40;;;;;;5057472;28;20048;-62
2023/09/10 01:57:19;;;;;;;11.80;9.38;;;27.00;79.70;;;;;;5054730;28;20486;-61
2023/09/10 01:59:44;;;;;;;11.82;8.57;;;26.90;79.40;;;;;;5090990;28;20055;-68
2023/09/10 02:02:10;;;;;;;11.77;9.50;;;26.60;79.50;;;;;;5078510;28;20033;-68
2023/09/10 02:04:36;;;;;;;9.82;8.82;;;26.80;79.40;;;;;;5067771;28;20494;-69
2023/09/10 02:07:02;;;;;;;10.57;9.48;;;26.80;79.50;;;;;;5048857;28;20182;-69
2023/09/10 02:09:28;;;;;;;10.30;9.20;;;26.90;79.60;;;;;;5037378;28;20483;-62
2023/09/10 02:11:54;;;;;;;12.05;9.75;;;26.70;79.40;;;;;;5069669;28;20049;-61
2023/09/10 02:14:20;;;;;;;10.80;9.15;;;26.70;79.60;;;;;;5031147;28;20037;-64
2023/09/10 02:16:45;;;;;;;11.73;10.52;;;27.00;79.70;;;;;;5069221;28;20049;-62
2023/09/10 02:19:11;;;;;;;11.05;9.68;;;26.60;79.40;;;;;;5019864;28;20045;-62
2023/09/10 02:21:37;;;;;;;10.75;9.45;;;26.90;79.70;;;;;;5026919;28;20103;-61
2023/09/10 02:24:04;;;;;;;11.02;9.65;;;26.80;79.50;;;;;;5036476;28;20045;-70
2023/09/10 02:26:29;;;;;;;10.80;9.70;;;26.70;79.20;;;;;;5039837;28;20037;-69
2023/09/10 02:28:55;;;;;;;11.02;9.93;;;26.90;79.60;;;;;;5039921;28;20052;-70
2023/09/10 02:31:22;;;;;;;10.82;9.48;;;26.70;79.50;;;;;;5061775;28;20069;-71
2023/09/10 02:33:48;;;;;;;11.40;10.27;;;26.90;79.60;;;;;;5053105;28;20065;-70
2023/09/10 02:36:14;;;;;;;11.45;10.25;;;26.80;79.30;;;;;;5039718;28;20045;-70
2023/09/10 02:38:40;;;;;;;11.48;10.27;;;26.80;79.60;;;;;;5035445;28;20454;-69
2023/09/10 02:41:06;;;;;;;12.00;10.55;;;27.00;79.30;;;;;;5056743;28;20045;-70
2023/09/10 02:43:32;;;;;;;11.68;10.43;;;26.80;79.60;;;;;;5019346;28;20049;-70
2023/09/10 02:46:01;;;;;;;11.07;9.95;;;26.80;79.60;;;;;;5055082;28;20045;-70
2023/09/10 02:48:26;;;;;;;11.73;10.20;;;27.00;79.80;;;;;;5036555;28;20064;-70
2023/09/10 02:50:54;;;;;;;11.77;10.20;;;26.70;79.30;;;;;;5071035;28;20040;-71
2023/09/10 02:53:19;;;;;;;11.90;10.55;;;26.80;79.60;;;;;;5064540;28;20478;-71
2023/09/10 02:55:45;;;;;;;13.27;10.15;;;26.70;79.60;;;;;;5074774;28;20051;-71
2023/09/10 02:58:11;;;;;;;12.57;10.98;;;26.80;79.80;;;;;;5020873;28;20684;-70
2023/09/10 03:00:37;;;;;;;11.77;9.75;;;26.60;79.50;;;;;;5039191;28;20048;-69
2023/09/10 03:03:03;;;;;;;11.10;9.90;;;26.90;79.60;;;;;;5072302;28;20053;-62
2023/09/10 03:05:33;;;;;;;11.45;10.07;;;26.70;79.30;;;;;;5035510;28;20049;-62
2023/09/10 03:07:59;;;;;;;12.95;11.13;;;26.70;79.90;;;;;;5037230;28;20048;-70
2023/09/10 03:10:25;;;;;;;11.88;10.65;;;26.80;79.60;;;;;;5019605;28;20080;-71
2023/09/10 03:12:51;;;;;;;12.27;10.98;;;26.50;79.40;;;;;;5048050;28;20072;-62
2023/09/10 03:15:17;;;;;;;12.27;11.07;;;26.60;79.20;;;;;;5037073;28;20041;-62
2023/09/10 03:17:43;;;;;;;13.02;11.73;;;26.80;82.80;;;;;;5036076;28;20072;-68
2023/09/10 03:20:09;;;;;;;12.45;10.88;;;26.70;79.70;;;;;;5036396;28;20044;-63
2023/09/10 03:22:38;;;;;;;10.93;9.77;;;26.50;79.10;;;;;;5084137;28;20501;-61
2023/09/10 03:25:05;;;;;;;11.95;9.77;;;26.70;78.30;;;;;;5024494;28;20159;-63
2023/09/10 03:27:31;;;;;;;12.90;11.32;;;26.50;79.20;;;;;;5003042;28;20059;-70
2023/09/10 03:29:57;;;;;;;11.60;10.40;;;26.80;79.70;;;;;;5068017;28;20493;-70
2023/09/10 03:32:23;;;;;;;11.52;10.32;;;27.00;79.30;;;;;;5037059;28;20501;-70
2023/09/10 03:34:49;;;;;;;11.45;10.25;;;26.80;80.00;;;;;;5052221;28;20421;-71
2023/09/10 03:37:14;;;;;;;11.55;10.38;;;26.70;79.50;;;;;;5060655;28;20049;-71
2023/09/10 03:39:40;;;;;;;11.63;10.43;;;26.70;79.80;;;;;;5044965;28;20044;-70
2023/09/10 03:42:08;;;;;;;12.98;11.65;;;26.60;79.60;;;;;;5055237;28;20045;-71
2023/09/10 03:44:34;;;;;;;12.55;11.25;;;26.70;79.80;;;;;;5050572;28;20513;-69
2023/09/10 03:47:00;;;;;;;12.93;11.60;;;26.80;80.00;;;;;;5018183;28;20398;-71
2023/09/10 03:49:29;;;;;;;12.18;10.93;;;26.60;79.80;;;;;;5035468;28;20545;-70
2023/09/10 03:51:56;;;;;;;12.50;10.77;;;26.60;79.00;;;;;;5034925;28;20045;-70
2023/09/10 03:54:23;;;;;;;11.93;9.55;;;26.70;80.10;;;;;;5052096;28;20044;-71
2023/09/10 03:56:48;;;;;;;11.30;10.10;;;26.70;80.10;;;;;;5056487;28;20187;-62
2023/09/10 03:59:14;;;;;;;10.38;9.00;;;26.50;80.30;;;;;;5059382;28;20128;-63
2023/09/10 04:01:40;;;;;;;10.40;9.30;;;26.70;79.90;;;;;;5053525;28;20056;-70
2023/09/10 04:04:07;;;;;;;9.75;8.82;;;26.70;79.70;;;;;;5047440;28;20490;-71
2023/09/10 04:06:33;;;;;;;9.98;8.93;;;26.50;78.90;;;;;;5074212;28;20537;-70
2023/09/10 04:08:59;;;;;;;10.13;9.00;;;26.70;80.00;;;;;;5071164;28;20043;-69
2023/09/10 04:11:25;;;;;;;10.93;9.80;;;26.60;79.80;;;;;;5067968;28;20200;-70
2023/09/10 04:13:54;;;;;;;10.80;9.70;;;28.00;81.30;;;;;;5035470;28;20084;-70
2023/09/10 04:16:20;;;;;;;12.13;10.93;;;26.60;80.50;;;;;;5082659;28;20063;-70
2023/09/10 04:18:46;;;;;;;11.57;9.68;;;26.40;79.30;;;;;;5031035;28;20493;-70
2023/09/10 04:21:12;;;;;;;12.20;10.90;;;26.50;79.50;;;;;;5054934;28;20055;-70
2023/09/10 04:23:38;;;;;;;12.35;11.07;;;26.70;80.00;;;;;;5017690;28;20049;-61
2023/09/10 04:26:05;;;;;;;11.00;9.77;;;26.40;79.60;;;;;;5058288;28;20036;-69
2023/09/10 04:28:30;;;;;;;10.70;9.60;;;26.70;79.20;;;;;;5035239;28;20052;-63
2023/09/10 04:30:56;;;;;;;10.63;9.52;;;26.40;79.70;;;;;;5045752;28;20036;-62
2023/09/10 04:33:22;;;;;;;10.18;9.18;;;26.70;79.60;;;;;;5022707;28;20060;-70
2023/09/10 04:35:50;;;;;;;9.60;8.45;;;26.30;79.30;;;;;;5060192;28;20057;-71
2023/09/10 04:38:16;;;;;;;10.13;8.98;;;26.50;80.00;;;;;;5058033;28;20091;-70
2023/09/10 04:40:42;;;;;;;10.60;9.38;;;26.60;79.80;;;;;;5037775;28;20103;-69
2023/09/10 04:43:08;;;;;;;9.40;8.40;;;26.80;79.90;;;;;;5061190;28;20085;-70
2023/09/10 04:45:36;;;;;;;9.75;8.50;;;26.40;79.30;;;;;;5037266;28;20041;-70
2023/09/10 04:48:02;;;;;;;10.27;8.38;;;26.60;79.80;;;;;;5067674;28;20056;-70
2023/09/10 04:50:31;;;;;;;8.32;7.32;;;26.50;79.90;;;;;;5046762;28;20041;-71
2023/09/10 04:52:57;;;;;;;8.82;7.97;;;26.60;80.50;;;;;;5037412;28;20040;-71
2023/09/10 04:55:23;;;;;;;8.70;7.70;;;26.60;80.20;;;;;;5054292;28;20048;-70
2023/09/10 04:57:49;;;;;;;8.50;7.40;;;26.30;79.70;;;;;;5051645;28;20486;-72
2023/09/10 05:00:15;;;;;;;8.13;6.88;;;26.60;80.10;;;;;;5053408;28;20461;-63
2023/09/10 05:02:41;;;;;;;7.82;7.05;;;26.60;80.00;;;;;;5047929;28;20481;-71
2023/09/10 05:05:07;;;;;;;9.35;8.40;;;26.40;79.70;;;;;;5033930;28;20037;-70
2023/09/10 05:07:34;;;;;;;8.23;7.43;;;26.50;79.60;;;;;;5050674;28;20045;-70
2023/09/10 05:10:00;;;;;;;7.93;7.13;;;26.70;80.10;;;;;;5034094;28;20379;-70
2023/09/10 05:12:26;;;;;;;8.13;7.32;;;26.50;80.30;;;;;;5036516;28;20043;-70
2023/09/10 05:14:52;;;;;;;7.93;7.13;;;26.50;80.30;;;;;;5064788;28;20148;-69
2023/09/10 05:17:19;;;;;;;7.93;7.13;;;26.50;79.90;;;;;;5050281;28;20079;-68
2023/09/10 05:19:47;;;;;;;6.97;6.28;;;26.50;80.50;;;;;;5007507;28;20567;-66
2023/09/10 05:22:16;;;;;;;7.78;6.97;;;27.00;80.80;;;;;;5055085;28;20122;-65
2023/09/10 05:24:42;;;;;;;8.57;7.68;;;26.50;78.80;;;;;;5074083;28;20045;-68
2023/09/10 05:27:09;;;;;;;7.95;7.15;;;26.50;80.10;;;;;;5054477;28;20047;-68
2023/09/10 05:29:35;;;;;;;8.27;7.47;;;26.60;80.40;;;;;;5052059;28;20037;-67
2023/09/10 05:32:01;;;;;;;7.85;7.05;;;26.40;80.20;;;;;;5055818;28;20056;-67
2023/09/10 05:34:27;;;;;;;7.70;6.90;;;26.30;80.10;;;;;;5024311;28;20153;-69
2023/09/10 05:36:56;;;;;;;8.07;6.70;;;26.50;79.90;;;;;;5049283;28;20079;-70
2023/09/10 05:39:22;;;;;;;8.00;7.18;;;25.60;79.60;;;;;;5029104;28;20047;-70
2023/09/10 05:41:51;;;;;;;7.60;6.80;;;26.40;79.60;;;;;;5079539;28;20045;-70
2023/09/10 05:44:17;;;;;;;6.95;6.22;;;26.20;79.30;;;;;;5024759;28;20052;-71
2023/09/10 05:46:43;;;;;;;6.78;5.95;;;26.50;80.30;;;;;;5057316;28;20102;-70
2023/09/10 05:49:09;;;;;;;7.60;6.22;;;28.60;81.50;;;;;;5021631;28;20045;-70
2023/09/10 05:51:36;;;;;;;7.95;7.15;;;26.30;79.40;;;;;;5039065;28;20167;-70
2023/09/10 05:54:02;;;;;;;8.18;7.38;;;26.50;80.40;;;;;;5078380;28;20052;-69
2023/09/10 05:56:28;;;;;;;8.07;7.28;;;26.50;83.20;;;;;;5049231;28;20084;-70
2023/09/10 05:58:55;;;;;;;7.70;6.90;;;26.40;80.00;;;;;;5073110;28;20072;-70
2023/09/10 06:01:21;;;;;;;8.07;7.28;;;26.50;79.80;;;;;;5062331;28;20052;-70
2023/09/10 06:03:47;;;;;;;7.85;6.72;;;26.40;79.70;;;;;;5040588;28;20093;-62
2023/09/10 06:06:13;;;;;;;7.30;6.35;;;26.50;79.60;;;;;;5074830;28;20041;-62
2023/09/10 06:08:39;;;;;;;7.50;6.70;;;26.60;79.80;;;;;;5073959;28;20177;-62
2023/09/10 06:11:05;;;;;;;7.53;6.80;;;26.70;80.00;;;;;;5042446;28;20804;-63
2023/09/10 06:13:31;;;;;;;7.13;6.43;;;26.50;79.50;;;;;;5057830;28;20128;-62
2023/09/10 06:15:58;;;;;;;6.53;5.82;;;26.60;79.70;;;;;;5054655;28;20120;-62
2023/09/10 06:18:25;;;;;;;6.55;5.75;;;26.60;79.60;;;;;;5054470;28;20076;-62
2023/09/10 06:20:51;;;;;;;6.65;5.95;;;26.70;79.30;;;;;;5084495;28;20040;-61
2023/09/10 06:23:17;;;;;;;6.53;5.78;;;26.70;79.50;;;;;;5045378;28;20041;-62
2023/09/10 06:25:43;;;;;;;7.60;6.05;;;26.70;79.50;;;;;;5056610;28;20378;-61
2023/09/10 06:28:09;;;;;;;6.80;5.90;;;27.00;79.60;;;;;;5030918;28;20410;-62
2023/09/10 06:30:36;;;;;;;7.15;5.80;;;27.10;79.40;;;;;;5020422;28;20033;-62
2023/09/10 06:33:02;;;;;;;7.18;6.22;;;27.10;79.50;;;;;;5039275;28;20044;-61
2023/09/10 06:35:28;;;;;;;8.93;6.88;;;27.20;79.10;;;;;;5085823;28;20048;-61
2023/09/10 06:37:53;;;;;;;9.23;7.72;;;27.40;79.10;;;;;;5023710;28;20051;-63
2023/09/10 06:40:19;;;;;;;10.38;7.47;;;27.50;79.00;;;;;;5056522;28;20037;-62
2023/09/10 06:42:45;;;;;;;11.02;8.10;;;27.30;78.80;;;;;;5056716;28;20043;-63
2023/09/10 06:45:11;;;;;;;10.43;7.60;;;27.50;78.70;;;;;;5007203;28;20398;-62
2023/09/10 06:47:37;;;;;;;9.15;6.90;;;27.40;78.40;;;;;;5020157;28;20134;-62
2023/09/10 06:50:03;;;;;;;9.70;6.47;;;27.40;78.00;;;;;;5053103;28;20041;-61
2023/09/10 06:52:29;;;;;;;7.70;5.40;;;27.50;77.90;;;;;;5035809;28;20045;-61
2023/09/10 06:54:55;;;;;;;6.72;5.38;;;27.80;77.90;;;;;;5061435;28;20036;-61
2023/09/10 06:57:21;;;;;;;7.13;5.65;;;28.00;78.00;;;;;;5056198;28;20048;-62
2023/09/10 06:59:47;;;;;;;7.05;5.20;;;28.20;77.90;;;;;;5056126;28;20098;-61
2023/09/10 07:02:13;;;;;;;6.50;5.45;;;27.90;77.50;;;;;;5045727;28;20048;-61
2023/09/10 07:04:47;;;;;;;20.85;17.52;;;28.10;77.50;;;;;;5039035;28;20048;-62
2023/09/10 07:07:14;;;;;;;33.88;30.42;;;28.00;77.20;;;;;;5040501;28;20123;-62
2023/09/10 07:09:40;;;;;;;34.55;31.25;;;28.20;77.10;;;;;;5053924;28;20120;-62
2023/09/10 07:12:06;;;;;;;34.72;31.15;;;28.00;76.70;;;;;;5052804;28;20041;-61
2023/09/10 07:14:32;;;;;;;34.45;31.15;;;27.70;76.30;;;;;;5035357;28;20107;-60
2023/09/10 07:16:58;;;;;;;34.17;30.75;;;27.50;76.60;;;;;;5064121;28;20478;-62
2023/09/10 07:19:24;;;;;;;28.88;25.95;;;27.70;76.90;;;;;;5072100;28;20049;-62
2023/09/10 07:21:49;;;;;;;32.00;28.83;;;27.70;77.00;;;;;;5053197;28;20076;-61
2023/09/10 07:24:15;;;;;;;30.88;27.98;;;27.70;77.40;;;;;;5053540;28;20091;-62
2023/09/10 07:26:43;;;;;;;31.10;28.10;;;27.50;77.10;;;;;;5056744;28;20052;-62
2023/09/10 07:29:09;;;;;;;33.10;29.92;;;27.50;77.10;;;;;;5053495;28;20453;-62
2023/09/10 07:31:34;;;;;;;32.03;28.92;;;27.60;77.50;;;;;;5035515;28;20036;-62
2023/09/10 07:34:01;;;;;;;29.20;26.40;;;27.50;77.30;;;;;;5067911;28;20060;-61
2023/09/10 07:36:27;;;;;;;28.20;25.48;;;27.50;77.80;;;;;;5061570;28;20490;-62
2023/09/10 07:38:54;;;;;;;31.65;28.48;;;27.50;77.70;;;;;;5039811;28;20098;-61
2023/09/10 07:41:20;;;;;;;32.85;29.70;;;27.40;77.80;;;;;;5055079;28;20394;-61
2023/09/10 07:43:46;;;;;;;32.03;29.02;;;27.70;78.20;;;;;;5073267;28;20071;-61
2023/09/10 07:46:12;;;;;;;32.40;29.40;;;27.50;77.80;;;;;;5038974;28;20806;-71
2023/09/10 07:48:38;;;;;;;29.13;26.33;;;27.60;77.80;;;;;;5034225;28;20063;-60
2023/09/10 07:51:05;;;;;;;31.73;28.58;;;27.50;78.10;;;;;;5072623;28;20079;-61
2023/09/10 07:53:31;;;;;;;31.77;28.73;;;27.70;78.30;;;;;;5042709;28;20106;-61
2023/09/10 07:55:57;;;;;;;27.92;25.25;;;27.40;78.10;;;;;;5042567;28;20040;-62
2023/09/10 07:58:22;;;;;;;28.58;25.98;;;27.80;78.50;;;;;;5052361;28;20097;-61
2023/09/10 08:00:50;;;;;;;29.67;26.63;;;27.70;78.30;;;;;;5065345;28;20047;-62
2023/09/10 08:03:16;;;;;;;30.52;27.50;;;27.70;78.30;;;;;;5038706;28;20517;-72
2023/09/10 08:05:41;;;;;;;27.05;24.42;;;27.90;78.80;;;;;;5067461;28;20041;-62
2023/09/10 08:08:07;;;;;;;23.02;20.83;;;27.60;77.90;;;;;;5052664;28;20045;-62
2023/09/10 08:10:33;;;;;;;27.67;24.77;;;28.00;78.20;;;;;;5043601;28;20126;-63
2023/09/10 08:12:59;;;;;;;20.48;18.30;;;28.00;78.00;;;;;;5038122;28;20048;-62
2023/09/10 08:15:27;;;;;;;23.50;21.20;;;28.10;78.20;;;;;;5046813;28;20553;-61
2023/09/10 08:17:54;;;;;;;24.95;22.52;;;27.90;76.80;;;;;;5034915;28;20400;-60
2023/09/10 08:20:20;;;;;;;27.45;24.77;;;28.30;78.10;;;;;;5034990;28;20056;-62
2023/09/10 08:22:46;;;;;;;24.88;22.30;;;27.90;77.70;;;;;;5034849;28;20387;-62
2023/09/10 08:25:12;;;;;;;29.85;27.05;;;28.10;77.90;;;;;;5043550;28;20055;-61
2023/09/10 08:27:39;;;;;;;30.20;27.23;;;28.40;78.10;;;;;;5039539;28;20052;-61
2023/09/10 08:30:06;;;;;;;26.45;22.88;;;28.20;77.80;;;;;;5034597;28;20124;-62
2023/09/10 08:32:32;;;;;;;25.27;22.52;;;28.20;77.60;;;;;;5034539;28;20128;-63
2023/09/10 08:34:58;;;;;;;26.67;23.90;;;28.20;77.90;;;;;;5004877;28;20052;-61
2023/09/10 08:37:24;;;;;;;28.27;25.00;;;27.90;77.30;;;;;;5061945;28;20044;-63
2023/09/10 08:39:50;;;;;;;24.20;21.80;;;28.20;77.40;;;;;;5063039;28;20082;-61
2023/09/10 08:42:24;;;;;;;25.95;23.35;;;28.20;77.40;;;;;;5053280;28;20072;-63
2023/09/10 08:44:56;;;;;;;25.85;23.23;;;28.40;76.10;;;;;;5039737;28;20060;-62
2023/09/10 08:47:22;;;;;;;;;;;28.10;77.50;;;;;;5046540;28;20108;-63
2023/09/10 08:49:48;;;;;;;21.42;19.25;;;28.10;76.80;;;;;;5045021;28;19921;-63
2023/09/10 08:52:14;;;;;;;20.20;18.10;;;28.20;77.20;;;;;;5054644;28;20120;-63
2023/09/10 08:54:40;;;;;;;19.35;17.30;;;28.00;76.90;;;;;;5072431;28;20037;-64
2023/09/10 08:57:06;;;;;;;17.83;16.10;;;28.00;77.10;;;;;;5038165;28;20446;-63
2023/09/10 08:59:31;;;;;;;20.90;18.70;;;28.00;76.90;;;;;;5063457;28;20509;-63
2023/09/10 09:01:57;;;;;;;21.42;19.33;;;28.00;76.90;;;;;;5055639;28;20044;-63
2023/09/10 09:04:23;;;;;;;25.75;23.15;;;27.60;76.60;;;;;;5076440;28;20040;-64
2023/09/10 09:06:55;;;;;;;22.20;19.95;;;28.20;77.30;;;;;;5063661;28;20037;-71
2023/09/10 09:09:22;;;;;;;;;;;28.10;78.00;;;;;;5059305;28;20063;-65
2023/09/10 09:11:48;;;;;;;25.90;23.38;;;28.10;77.90;;;;;;5082413;28;19921;-64
2023/09/10 09:14:16;;;;;;;23.02;20.50;;;28.00;77.40;;;;;;5083852;28;20125;-61
2023/09/10 09:16:43;;;;;;;24.20;21.90;;;27.90;77.50;;;;;;5022620;28;20175;-62
2023/09/10 09:19:13;;;;;;;27.65;24.88;;;28.00;77.50;;;;;;5054512;28;20119;-60
2023/09/10 09:21:43;;;;;;;25.30;22.80;;;28.10;76.90;;;;;;5055390;28;20497;-61
2023/09/10 09:24:13;;;;;;;21.40;19.40;;;28.20;77.10;;;;;;5055627;28;20044;-61
2023/09/10 09:26:44;;;;;;;22.67;20.25;;;28.00;77.00;;;;;;5056060;28;20052;-69
2023/09/10 09:29:14;;;;;;;20.73;18.67;;;29.00;77.60;;;;;;5074202;28;20124;-68
2023/09/10 09:31:44;;;;;;;;;;;28.00;76.80;;;;;;5083344;28;20509;-68
2023/09/10 09:34:11;;;;;;;20.88;18.65;;;28.20;78.00;;;;;;5057688;28;19921;-64
2023/09/10 09:36:39;;;;;;;18.35;16.45;;;28.00;77.30;;;;;;5058639;28;20497;-67
2023/09/10 09:39:07;;;;;;;24.90;22.33;;;28.00;78.00;;;;;;5039458;28;20053;-61
2023/09/10 09:41:36;;;;;;;23.05;20.85;;;28.10;77.90;;;;;;5037632;28;20057;-62
2023/09/10 09:44:03;;;;;;;20.05;18.08;;;28.10;78.10;;;;;;5055395;28;20096;-62
2023/09/10 09:46:33;;;;;;;17.23;15.43;;;27.90;77.70;;;;;;5056478;28;20394;-63
2023/09/10 09:48:59;;;;;;;25.60;22.85;;;28.00;78.40;;;;;;5067076;28;20567;-60
2023/09/10 09:51:24;;;;;;;24.98;22.30;;;28.10;77.90;;;;;;5062705;28;20086;-61
2023/09/10 09:53:51;;;;;;;21.98;19.67;;;28.00;77.90;;;;;;5032262;28;20456;-71
2023/09/10 09:56:21;;;;;;;18.50;16.67;;;28.20;78.00;;;;;;5054306;28;20428;-72
2023/09/10 09:58:47;;;;;;;22.77;19.33;;;28.20;77.30;;;;;;5031815;28;20044;-70
2023/09/10 10:01:13;;;;;;;16.48;14.57;;;27.80;77.60;;;;;;5048148;28;20044;-72
2023/09/10 10:03:40;;;;;;;19.27;17.30;;;27.80;77.60;;;;;;5075412;28;20082;-62
2023/09/10 10:06:06;;;;;;;22.27;19.88;;;27.90;77.50;;;;;;5073537;28;20036;-61
2023/09/10 10:08:32;;;;;;;19.88;17.75;;;28.10;77.80;;;;;;5047384;28;20053;-71
2023/09/10 10:10:59;;;;;;;20.25;17.98;;;28.20;77.90;;;;;;5036852;28;20037;-71
2023/09/10 10:13:26;;;;;;;18.95;17.05;;;28.20;78.00;;;;;;5066993;28;20447;-70
2023/09/10 10:15:53;;;;;;;18.40;15.52;;;28.30;78.50;;;;;;5060145;28;20432;-62
2023/09/10 10:18:20;;;;;;;19.48;17.58;;;28.40;78.50;;;;;;5042173;28;20048;-61
2023/09/10 10:20:49;;;;;;;21.73;19.52;;;28.40;78.50;;;;;;5052728;28;20501;-61
2023/09/10 10:23:18;;;;;;;20.52;18.38;;;28.40;78.30;;;;;;5057067;28;20127;-72
2023/09/10 10:25:45;;;;;;;20.35;18.30;;;27.20;76.20;;;;;;5049420;28;20386;-71
2023/09/10 10:28:12;;;;;;;20.65;18.55;;;28.40;78.60;;;;;;5071353;28;20105;-72
2023/09/10 10:30:44;;;;;;;21.02;15.85;;;28.80;78.80;;;;;;5074809;28;20477;-72
2023/09/10 10:33:10;;;;;;;;;;;28.50;78.80;;;;;;5057413;28;20063;-71
2023/09/10 10:35:36;;;;;;;21.88;19.58;;;28.30;78.10;;;;;;5068527;28;19928;-72
2023/09/10 10:38:03;;;;;;;22.15;19.95;;;28.40;78.10;;;;;;5042483;28;20436;-72
2023/09/10 10:40:37;;;;;;;24.77;19.65;;;28.50;78.10;;;;;;5031735;28;20041;-71
2023/09/10 10:43:45;;;;;;;20.30;18.23;;;29.20;79.60;;;;;;5037040;28;20052;-72
2023/09/10 10:46:11;;;;;;;22.13;19.83;;;28.50;77.80;;;;;;4995367;28;20418;-72
2023/09/10 10:48:41;;;;;;;21.73;19.58;;;28.60;78.50;;;;;;4995857;28;20042;-62
2023/09/10 10:51:11;;;;;;;27.50;23.23;;;28.80;78.20;;;;;;5011269;28;20054;-61
2023/09/10 10:53:37;;;;;;;23.15;19.77;;;28.40;78.40;;;;;;4976662;28;20064;-62
2023/09/10 10:56:03;;;;;;;23.23;20.88;;;28.30;78.40;;;;;;5011522;28;20582;-72
2023/09/10 10:58:30;;;;;;;22.75;15.85;;;28.40;78.50;;;;;;4995930;28;20504;-72
2023/09/10 11:00:58;;;;;;;18.90;16.13;;;28.70;79.20;;;;;;4978145;28;20109;-72
2023/09/10 11:03:24;;;;;;;17.30;14.90;;;28.40;78.80;;;;;;4995550;28;20061;-72
2023/09/10 11:08:29;;;;;;;16.77;15.07;;;28.80;78.90;;;;;;5011802;28;20069;-62
2023/09/10 11:10:55;;;;;;;19.90;16.83;;;28.70;77.50;;;;;;4985286;28;20050;-71
2023/09/10 11:13:24;;;;;;;17.98;15.60;;;28.90;78.70;;;;;;4998396;28;20058;-61
2023/09/10 11:16:04;;;;;;;20.48;17.33;;;28.80;78.20;;;;;;5020984;28;20054;-61
2023/09/10 11:18:36;;;;;;;19.23;16.92;;;29.10;79.30;;;;;;4994721;28;20045;-62
2023/09/10 11:21:08;;;;;;;19.73;17.70;;;29.00;79.00;;;;;;5033741;28;20498;-73
2023/09/10 11:23:38;;;;;;;24.45;16.95;;;28.70;77.20;;;;;;5045091;28;20049;-71
2023/09/10 11:26:13;;;;;;;18.35;16.25;;;28.90;78.70;;;;;;5049307;28;20150;-61
2023/09/10 11:28:47;;;;;;;19.00;16.45;;;28.80;78.70;;;;;;5035523;28;20048;-62
2023/09/10 11:31:47;;;;;;;17.83;15.35;;;29.10;79.20;;;;;;5019083;28;20525;-62
2023/09/10 11:34:27;;;;;;;17.77;15.98;;;29.20;77.80;;;;;;5036300;28;20072;-72
2023/09/10 11:37:04;;;;;;;17.85;15.05;;;29.10;77.90;;;;;;5075465;28;20402;-72
2023/09/10 11:39:31;;;;;;;20.25;18.15;;;29.00;79.00;;;;;;5025881;28;20051;-72
2023/09/10 11:41:59;;;;;;;20.88;18.80;;;29.10;78.70;;;;;;5029375;28;20051;-73
2023/09/10 11:44:25;;;;;;;15.57;13.40;;;29.10;78.70;;;;;;5002428;28;20056;-72
2023/09/10 11:46:52;;;;;;;17.25;14.85;;;29.00;78.30;;;;;;5049422;28;20056;-63
2023/09/10 11:49:19;;;;;;;14.90;12.50;;;29.10;77.90;;;;;;5034748;28;20410;-63
2023/09/10 11:51:56;;;;;;;18.38;15.05;;;29.30;78.50;;;;;;5052476;28;20452;-61
2023/09/10 11:54:21;;;;;;;17.90;14.18;;;29.40;78.70;;;;;;5034986;28;20110;-62
2023/09/10 11:56:49;;;;;;;15.35;13.52;;;29.20;77.90;;;;;;5039116;28;20475;-62
2023/09/10 11:59:19;;;;;;;14.32;12.70;;;29.60;78.50;;;;;;5036837;28;20058;-61
2023/09/10 12:01:46;;;;;;;14.02;12.35;;;29.20;78.20;;;;;;5035292;28;20128;-62
2023/09/10 12:04:13;;;;;;;13.40;11.77;;;29.40;78.20;;;;;;5057258;28;20436;-62
2023/09/10 12:06:39;;;;;;;15.63;12.70;;;29.30;78.00;;;;;;5036806;28;20127;-60
2023/09/10 12:09:05;;;;;;;15.77;13.30;;;29.30;78.10;;;;;;5046332;28;20048;-62
2023/09/10 12:11:31;;;;;;;14.18;11.82;;;29.60;77.90;;;;;;5044763;28;20095;-63
2023/09/10 12:13:57;;;;;;;17.67;15.52;;;29.40;78.10;;;;;;5034473;28;20118;-65
2023/09/10 12:16:23;;;;;;;17.27;14.20;;;29.50;77.90;;;;;;5042644;28;20482;-61
2023/09/10 12:18:49;;;;;;;16.05;12.60;;;29.50;77.90;;;;;;5024476;28;20053;-62
2023/09/10 12:21:17;;;;;;;13.93;11.25;;;29.70;77.60;;;;;;5051406;28;20045;-62
2023/09/10 12:23:42;;;;;;;14.88;10.35;;;29.40;77.20;;;;;;5052075;28;20506;-62
2023/09/10 12:26:08;;;;;;;12.52;10.35;;;29.70;77.60;;;;;;5028325;28;20083;-62
2023/09/10 12:28:34;;;;;;;14.90;10.90;;;29.50;77.50;;;;;;5052219;28;20056;-61
2023/09/10 12:31:00;;;;;;;13.68;11.13;;;29.60;77.50;;;;;;5034368;28;20041;-64
2023/09/10 12:33:26;;;;;;;16.55;11.60;;;29.70;77.50;;;;;;5045507;28;20098;-62
2023/09/10 12:35:52;;;;;;;16.45;12.70;;;29.50;77.50;;;;;;5044645;28;20056;-70